首页
METAR-TAF:

METAR-TAF

机场 :

Boscobel Airport

Boscobel, 威斯康辛州, 美国

纬度: 43-09-22N, 经度: 090-40-39W, 海拔: 205米

当前天气观测

该预报发布于35分钟前的13:53 UTC
风速3节,风向西
温度 21°C
湿度 78%
气压 1009 hPa
多云层高于8500英尺
多云层高于10000英尺

METAR: KOVS 251353Z AUTO 28003KT BKN085 BKN100 21/17 A2981 RMK AO2 SLP092 T02060167

时间: 09:28 (14:28 UTC)


TAF: 丢失

超过4000个机场的气象观测和天气预报(METAR&TAF报告)。

可查询的气象台以黄色和红色小点在地图上表示。

将鼠标移到小点上方,可查看气象台名称。

然后点击查看天气观测和预报。

如需切换地图:点击带黑十字的绿色按钮放大地图;点击带横线的绿色按钮缩小地图;或者点击绿色箭头查看邻近地区的地图。


METAR-TAF: